createdAt,value
2024-05-09T00:03:20.118Z,85.30
2024-05-09T00:07:22.593Z,85.40
2024-05-09T00:11:25.090Z,85.80
2024-05-09T00:15:27.580Z,85.80
2024-05-09T00:19:30.043Z,85.10
2024-05-09T00:23:32.672Z,85.40
2024-05-09T00:27:36.448Z,85.80
2024-05-09T00:31:38.854Z,85.40
2024-05-09T00:35:41.845Z,85.40
2024-05-09T00:39:45.034Z,85.60
2024-05-09T00:43:47.491Z,85.30
2024-05-09T00:47:50.373Z,85.50
2024-05-09T00:51:56.581Z,85.60
2024-05-09T00:55:59.555Z,85.40
2024-05-09T01:00:02.318Z,86.30
2024-05-09T01:04:04.937Z,85.50
2024-05-09T01:08:08.505Z,85.10
2024-05-09T01:12:11.557Z,85.70
2024-05-09T01:16:14.651Z,85.90
2024-05-09T01:20:22.871Z,85.60
2024-05-09T01:24:30.170Z,85.30
2024-05-09T01:28:32.565Z,85.10
2024-05-09T01:32:35.148Z,84.80
2024-05-09T01:36:37.620Z,85.20
2024-05-09T01:40:40.574Z,84.90
2024-05-09T01:44:43.700Z,84.70
2024-05-09T01:48:47.088Z,85.10
2024-05-09T01:52:49.639Z,85.70
2024-05-09T01:56:52.103Z,85.90
2024-05-09T02:00:54.855Z,84.80
2024-05-09T02:04:57.358Z,85.70
2024-05-09T02:08:59.859Z,85.80
2024-05-09T02:13:02.332Z,85.50
2024-05-09T02:17:04.996Z,85.40
2024-05-09T02:21:09.192Z,85.60
2024-05-09T02:25:11.630Z,86.50
2024-05-09T02:29:14.103Z,86.70
2024-05-09T02:33:16.729Z,86.50
2024-05-09T02:37:19.237Z,90.70
2024-05-09T02:41:21.733Z,86.70
2024-05-09T02:45:24.971Z,86.60
2024-05-09T02:49:27.608Z,85.80
2024-05-09T02:53:30.099Z,85.00
2024-05-09T02:57:32.489Z,86.00
2024-05-09T03:01:35.178Z,86.20
2024-05-09T03:05:38.075Z,85.00
2024-05-09T03:09:40.621Z,84.90
2024-05-09T03:13:43.102Z,85.00
2024-05-09T03:17:46.234Z,84.70
2024-05-09T03:21:48.811Z,84.70
2024-05-09T03:25:51.369Z,85.00
2024-05-09T03:29:54.141Z,84.90
2024-05-09T03:33:56.789Z,85.10
2024-05-09T03:37:59.286Z,85.50
2024-05-09T03:42:01.784Z,85.70
2024-05-09T03:46:04.346Z,85.70
2024-05-09T03:50:14.988Z,85.60
2024-05-09T03:54:20.502Z,85.30
2024-05-09T03:58:22.906Z,85.20
2024-05-09T04:02:25.415Z,85.40
2024-05-09T04:06:27.869Z,86.40
2024-05-09T04:10:33.697Z,86.10
2024-05-09T04:14:37.392Z,86.20
2024-05-09T04:18:40.047Z,86.20
2024-05-09T04:22:42.494Z,86.40
2024-05-09T04:26:44.918Z,86.30
2024-05-09T04:30:47.380Z,85.90
2024-05-09T04:34:49.873Z,86.60
2024-05-09T04:38:52.335Z,86.20
2024-05-09T04:42:54.736Z,86.10
2024-05-09T04:46:57.253Z,85.80
2024-05-09T04:50:59.746Z,85.70
2024-05-09T04:55:02.225Z,85.20
2024-05-09T04:59:04.730Z,84.80
2024-05-09T05:03:11.001Z,85.10
2024-05-09T05:07:15.611Z,83.00
2024-05-09T05:11:18.138Z,84.90
2024-05-09T05:15:20.668Z,84.90
2024-05-09T05:19:23.225Z,84.50
2024-05-09T05:23:25.851Z,84.90
2024-05-09T05:27:28.317Z,84.00
2024-05-09T05:31:30.802Z,84.00
2024-05-09T05:35:33.519Z,83.60
2024-05-09T05:39:36.010Z,83.30
2024-05-09T05:43:38.480Z,83.90
2024-05-09T05:47:41.514Z,83.50
2024-05-09T05:51:44.182Z,82.70
2024-05-09T05:55:46.627Z,82.80
2024-05-09T05:59:49.110Z,82.30
2024-05-09T06:03:51.698Z,82.00
2024-05-09T06:07:54.274Z,79.30
2024-05-09T06:11:56.843Z,82.00
2024-05-09T06:16:00.891Z,80.90
2024-05-09T06:20:03.701Z,81.50
2024-05-09T06:24:07.149Z,79.70
2024-05-09T06:28:09.532Z,79.10
2024-05-09T06:32:12.032Z,78.60
2024-05-09T06:36:14.480Z,78.40
2024-05-09T06:40:21.433Z,77.80
2024-05-09T06:44:28.069Z,78.80
2024-05-09T06:48:30.781Z,77.30
2024-05-09T06:52:33.446Z,77.80
2024-05-09T06:56:36.605Z,77.20
2024-05-09T07:00:41.216Z,77.10
2024-05-09T07:04:44.649Z,77.10
2024-05-09T07:08:48.595Z,76.00
2024-05-09T07:12:51.200Z,76.90
2024-05-09T07:16:53.734Z,76.40
2024-05-09T07:20:56.272Z,75.00
2024-05-09T07:24:58.741Z,75.00
2024-05-09T07:29:01.239Z,75.70
2024-05-09T07:33:04.275Z,75.40
2024-05-09T07:37:12.793Z,74.90
2024-05-09T07:41:15.298Z,75.20
2024-05-09T07:53:39.925Z,74.20
2024-05-09T07:57:46.980Z,76.60
2024-05-09T08:01:49.480Z,78.60
2024-05-09T08:05:52.345Z,76.00
2024-05-09T08:09:54.879Z,75.50
2024-05-09T08:13:57.329Z,74.70
2024-05-09T08:18:00.343Z,76.30
2024-05-09T08:22:07.142Z,75.30
2024-05-09T08:26:09.693Z,75.40
2024-05-09T08:30:21.329Z,75.50
2024-05-09T08:34:27.662Z,74.80
2024-05-09T08:38:30.146Z,71.70
2024-05-09T08:42:36.411Z,72.90
2024-05-09T08:46:39.004Z,72.60
2024-05-09T08:50:41.792Z,72.90
2024-05-09T08:54:45.246Z,73.70
2024-05-09T08:58:52.051Z,70.80
2024-05-09T09:02:55.693Z,70.90
2024-05-09T09:07:00.372Z,69.10
2024-05-09T09:11:04.441Z,66.50
2024-05-09T09:15:07.145Z,64.00
2024-05-09T09:19:09.829Z,61.70
2024-05-09T09:23:12.331Z,61.30
2024-05-09T09:27:14.937Z,61.20
2024-05-09T09:31:20.530Z,59.60
2024-05-09T09:35:23.051Z,61.10
2024-05-09T09:39:28.679Z,63.40
2024-05-09T09:43:32.426Z,59.10
2024-05-09T09:47:39.938Z,58.70
2024-05-09T09:51:43.915Z,58.00
2024-05-09T09:55:47.370Z,56.80
2024-05-09T09:59:52.254Z,54.30
2024-05-09T10:03:54.961Z,57.10
2024-05-09T10:07:58.992Z,54.80
2024-05-09T10:12:16.717Z,55.80
2024-05-09T10:16:24.416Z,56.20
2024-05-09T10:20:30.907Z,56.10
2024-05-09T10:24:50.648Z,55.10
2024-05-09T10:28:53.087Z,54.70
2024-05-09T10:32:57.609Z,56.50
2024-05-09T10:37:04.174Z,54.90
2024-05-09T10:41:07.482Z,54.70
2024-05-09T10:45:09.886Z,54.50
2024-05-09T10:49:15.097Z,53.20
2024-05-09T10:53:19.276Z,52.90
2024-05-09T10:57:22.913Z,54.10
2024-05-09T11:01:25.651Z,52.20
2024-05-09T11:05:28.408Z,50.50
2024-05-09T11:09:33.112Z,50.90
2024-05-09T11:13:37.266Z,51.70
2024-05-09T11:17:39.817Z,51.40
2024-05-09T11:21:42.625Z,52.00
2024-05-09T11:25:52.457Z,57.40
2024-05-09T11:29:54.956Z,53.10
2024-05-09T11:33:57.497Z,54.20
2024-05-09T11:38:00.025Z,55.10
2024-05-09T11:42:02.524Z,52.20
2024-05-09T11:46:05.731Z,53.60
2024-05-09T11:50:13.004Z,53.90
2024-05-09T11:54:18.843Z,53.20
2024-05-09T11:58:23.021Z,53.70
2024-05-09T12:02:25.692Z,56.30
2024-05-09T12:06:29.619Z,52.30
2024-05-09T12:10:34.779Z,52.30
2024-05-09T12:14:38.746Z,52.80
2024-05-09T12:18:41.283Z,54.00
2024-05-09T12:22:43.845Z,54.80
2024-05-09T12:26:46.383Z,55.10
2024-05-09T12:30:49.996Z,55.50
2024-05-09T12:34:52.434Z,55.60
2024-05-09T12:38:54.906Z,54.90
2024-05-09T12:42:57.376Z,55.10
2024-05-09T12:47:01.498Z,55.30
2024-05-09T12:51:04.000Z,54.50
2024-05-09T12:55:06.809Z,55.20
2024-05-09T12:59:09.260Z,56.10
2024-05-09T13:03:11.958Z,55.00
2024-05-09T13:07:14.950Z,55.30
2024-05-09T13:11:17.531Z,55.30
2024-05-09T13:15:19.940Z,56.60
2024-05-09T13:19:22.579Z,56.70
2024-05-09T13:23:25.115Z,56.20
2024-05-09T13:27:27.595Z,56.40
2024-05-09T13:31:30.151Z,56.10
2024-05-09T13:35:34.412Z,56.90
2024-05-09T13:39:37.083Z,56.80
2024-05-09T13:43:39.736Z,56.70
2024-05-09T13:47:42.410Z,57.20
2024-05-09T13:51:44.950Z,56.40
2024-05-09T13:55:47.614Z,56.50
2024-05-09T13:59:50.044Z,57.00
2024-05-09T14:03:52.601Z,57.50
2024-05-09T14:07:55.186Z,57.40
2024-05-09T14:11:57.682Z,57.50
2024-05-09T14:16:00.383Z,56.60
2024-05-09T14:20:03.824Z,60.70
2024-05-09T14:24:07.162Z,60.40
2024-05-09T14:28:10.444Z,62.90
2024-05-09T14:32:12.886Z,61.30
2024-05-09T14:36:15.360Z,58.30
2024-05-09T14:40:29.744Z,59.80
2024-05-09T14:44:39.210Z,57.40
2024-05-09T14:48:42.571Z,56.40
2024-05-09T14:52:45.077Z,55.60
2024-05-09T14:56:47.604Z,56.10
2024-05-09T15:00:51.494Z,55.90
2024-05-09T15:04:54.638Z,57.10
2024-05-09T15:08:57.824Z,55.30
2024-05-09T15:13:00.431Z,56.40
2024-05-09T15:17:03.399Z,55.70
2024-05-09T15:21:06.180Z,56.10
2024-05-09T15:25:08.742Z,55.90
2024-05-09T15:29:11.341Z,56.10
2024-05-09T15:33:13.816Z,56.70
2024-05-09T15:37:16.498Z,56.80
2024-05-09T15:41:19.048Z,56.80
2024-05-09T15:45:21.482Z,56.80
2024-05-09T15:49:24.067Z,56.60
2024-05-09T15:53:26.576Z,59.50
2024-05-09T15:57:29.177Z,61.80
2024-05-09T16:01:31.692Z,57.10
2024-05-09T16:05:34.413Z,56.80
2024-05-09T16:09:37.144Z,56.30
2024-05-09T16:13:39.602Z,56.30
2024-05-09T16:17:42.060Z,56.00
2024-05-09T16:21:44.557Z,56.00
2024-05-09T16:25:48.390Z,55.80
2024-05-09T16:29:51.208Z,55.40
2024-05-09T16:33:53.806Z,55.60
2024-05-09T16:37:56.583Z,56.10
2024-05-09T16:41:59.009Z,56.60
2024-05-09T16:46:01.676Z,56.40
2024-05-09T16:50:05.311Z,57.10
2024-05-09T16:54:09.028Z,57.00
2024-05-09T16:58:12.634Z,56.80
2024-05-09T17:02:15.426Z,57.00
2024-05-09T17:06:18.353Z,57.30
2024-05-09T17:10:29.117Z,59.80
2024-05-09T17:14:34.840Z,58.30
2024-05-09T17:18:37.452Z,62.90
2024-05-09T17:22:39.958Z,59.00
2024-05-09T17:26:42.433Z,63.50
2024-05-09T17:30:45.591Z,63.00
2024-05-09T17:34:48.084Z,64.20
2024-05-09T17:38:50.743Z,63.50
2024-05-09T17:42:53.168Z,64.20
2024-05-09T17:46:55.896Z,65.50
2024-05-09T17:50:58.392Z,67.50
2024-05-09T17:55:00.967Z,66.40
2024-05-09T17:59:03.500Z,64.00
2024-05-09T18:03:06.486Z,68.20
2024-05-09T18:07:09.161Z,67.60
2024-05-09T18:11:11.829Z,67.70
2024-05-09T18:15:14.380Z,68.10
2024-05-09T18:19:17.037Z,69.70
2024-05-09T18:23:19.547Z,69.40
2024-05-09T18:27:22.117Z,70.10
2024-05-09T18:31:24.722Z,69.50
2024-05-09T18:35:27.409Z,70.50
2024-05-09T18:39:29.823Z,70.80
2024-05-09T18:43:38.445Z,71.40
2024-05-09T18:47:47.270Z,71.70
2024-05-09T18:51:49.778Z,71.40
2024-05-09T18:55:52.290Z,70.10
2024-05-09T18:59:54.703Z,70.70
2024-05-09T19:03:57.368Z,70.90
2024-05-09T19:07:59.914Z,70.10
2024-05-09T19:12:06.366Z,70.30
2024-05-09T19:16:08.906Z,70.60
2024-05-09T19:20:20.760Z,70.90
2024-05-09T19:24:30.952Z,71.30
2024-05-09T19:28:33.472Z,72.00
2024-05-09T19:32:36.127Z,72.40
2024-05-09T19:36:38.690Z,72.50
2024-05-09T19:40:41.429Z,72.80
2024-05-09T19:44:43.922Z,72.80
2024-05-09T19:48:46.557Z,72.90
2024-05-09T19:52:49.113Z,72.80
2024-05-09T19:56:51.656Z,73.40
2024-05-09T20:00:54.206Z,73.20
2024-05-09T20:04:56.717Z,73.70
2024-05-09T20:08:59.824Z,73.90
2024-05-09T20:13:02.826Z,73.60
2024-05-09T20:17:05.512Z,73.90
2024-05-09T20:21:08.066Z,74.00
2024-05-09T20:25:10.790Z,73.60
2024-05-09T20:29:13.278Z,73.60
2024-05-09T20:33:15.764Z,73.30
2024-05-09T20:37:18.887Z,73.10
2024-05-09T20:41:21.345Z,73.10
2024-05-09T20:45:23.804Z,73.70
2024-05-09T20:49:26.658Z,72.00
2024-05-09T20:53:29.185Z,73.10
2024-05-09T20:57:32.239Z,73.70
2024-05-09T21:01:34.875Z,73.00
2024-05-09T21:05:37.558Z,73.00
2024-05-09T21:09:40.247Z,72.60
2024-05-09T21:13:42.739Z,75.90
2024-05-09T21:17:45.259Z,74.70
2024-05-09T21:21:48.474Z,74.50
2024-05-09T21:25:51.997Z,74.30
2024-05-09T21:29:54.424Z,76.30
2024-05-09T21:33:56.981Z,76.30
2024-05-09T21:37:59.592Z,75.30
2024-05-09T21:42:02.812Z,75.60
2024-05-09T21:46:05.696Z,76.20
2024-05-09T21:50:12.437Z,77.40
2024-05-09T21:54:17.741Z,77.90
2024-05-09T21:58:20.271Z,77.50
2024-05-09T22:02:22.943Z,76.40
2024-05-09T22:06:25.401Z,75.90
2024-05-09T22:10:33.766Z,75.90
2024-05-09T22:14:38.366Z,75.50
2024-05-09T22:18:40.843Z,75.20
2024-05-09T22:22:43.322Z,75.90
2024-05-09T22:26:45.729Z,75.20
2024-05-09T22:30:48.302Z,74.70
2024-05-09T22:34:50.796Z,74.90
2024-05-09T22:38:53.290Z,77.60
2024-05-09T22:42:55.892Z,77.00
2024-05-09T22:46:58.442Z,76.50
2024-05-09T22:51:01.098Z,76.50
2024-05-09T22:55:04.378Z,75.70
2024-05-09T22:59:07.229Z,75.50
2024-05-09T23:03:09.983Z,77.20
2024-05-09T23:07:12.657Z,77.10
2024-05-09T23:11:15.188Z,76.90
2024-05-09T23:15:17.671Z,76.50
2024-05-09T23:19:20.150Z,76.40
2024-05-09T23:23:22.705Z,75.90
2024-05-09T23:27:25.102Z,76.20
2024-05-09T23:31:27.805Z,75.80
2024-05-09T23:35:30.287Z,75.80
2024-05-09T23:39:32.835Z,75.50
2024-05-09T23:43:38.620Z,75.10
2024-05-09T23:47:41.187Z,75.90
2024-05-09T23:51:43.720Z,76.60
2024-05-09T23:55:46.150Z,76.60
2024-05-09T23:59:49.378Z,77.50
